Tremont, Pennsylvania
Current Conditions -  °F | °C
As of 10:58 AM on Thursday 29 Jan 2015 (Local Time) from KMUI Reporting Station
Scattered Clouds Scattered Clouds  
Wind Chill: 14°   Ceiling: Unl
Heat Index: 23°   Visibility: 10mi
Dew Point:   Wind: 8mph
Humidity: 47%   Direction: 70°ENE
Pressure: 30.24"   Gusts: NA
Location:  40.63°N, 76.39°W
Report Text: KMUI 291558Z AUTO 07007KT 10SM FEW110 SCT200 M05/M15 A3024 RMK AO2 SLP251 T10491147
Loading
Personal Weather Stations






























Interactive Weather Map New forecast layout! Learn more

10-Day Weather Forecast

Advertisements
Track Severe Weather on mobile